Terminal Aerodrome Forecast
Issued by NWS

Home | Current Version | Previous Version | Text Only | Print | Product List | Glossary On
Versions: 1 2 3 4 5 6 7 8 9 10 11 12
496
FTUS41 KPBZ 251123
TAFBVI
TAF
KBVI 251123Z 2512/2612 10010KT 6SM -RA OVC040
     FM251500 11012G18KT P6SM OVC040
     FM260400 09008KT P6SM BKN015=

USA.gov is the U.S. government's official web portal to all federal, state and local government web resources and services.